createdAt,value
2019-06-08T00:03:04.849Z,15.60
2019-06-08T00:07:05.834Z,15.70
2019-06-08T00:11:06.737Z,15.50
2019-06-08T00:15:08.117Z,15.40
2019-06-08T00:19:09.033Z,15.20
2019-06-08T00:23:09.957Z,15.70
2019-06-08T00:27:10.832Z,15.10
2019-06-08T00:31:11.719Z,15.60
2019-06-08T00:35:13.009Z,15.60
2019-06-08T00:39:14.696Z,15.30
2019-06-08T00:43:17.080Z,14.90
2019-06-08T00:47:18.545Z,14.60
2019-06-08T00:51:19.424Z,14.80
2019-06-08T00:55:21.786Z,15.00
2019-06-08T00:59:24.012Z,15.30
2019-06-08T01:03:25.835Z,14.90
2019-06-08T01:07:26.968Z,15.20
2019-06-08T01:11:28.894Z,14.70
2019-06-08T01:15:34.089Z,14.90
2019-06-08T01:19:32.807Z,15.20
2019-06-08T01:23:33.698Z,15.50
2019-06-08T01:27:34.580Z,15.50
2019-06-08T01:31:35.541Z,15.40
2019-06-08T01:35:36.518Z,14.80
2019-06-08T01:39:37.408Z,14.80
2019-06-08T01:43:38.374Z,15.00
2019-06-08T01:47:39.258Z,15.20
2019-06-08T01:51:40.128Z,14.60
2019-06-08T01:55:41.033Z,15.00
2019-06-08T01:59:42.021Z,15.10
2019-06-08T02:03:43.002Z,14.80
2019-06-08T02:07:43.897Z,15.40
2019-06-08T02:11:44.890Z,15.90
2019-06-08T02:15:45.899Z,15.40
2019-06-08T02:19:46.877Z,14.70
2019-06-08T02:23:47.721Z,15.50
2019-06-08T02:27:48.708Z,15.60
2019-06-08T02:31:49.717Z,15.10
2019-06-08T02:35:50.593Z,15.10
2019-06-08T02:39:51.554Z,14.80
2019-06-08T02:43:52.538Z,15.10
2019-06-08T02:47:53.447Z,15.00
2019-06-08T02:51:54.567Z,14.30
2019-06-08T02:55:55.748Z,15.20
2019-06-08T03:00:00.058Z,14.80
2019-06-08T03:04:01.139Z,14.10
2019-06-08T03:08:04.046Z,14.80
2019-06-08T03:12:05.050Z,14.40
2019-06-08T03:16:06.008Z,14.80
2019-06-08T03:20:06.874Z,14.60
2019-06-08T03:24:07.753Z,14.20
2019-06-08T03:28:08.741Z,14.70
2019-06-08T03:32:09.625Z,15.10
2019-06-08T03:36:10.711Z,14.20
2019-06-08T03:40:12.386Z,15.00
2019-06-08T03:44:13.251Z,14.40
2019-06-08T03:48:14.115Z,14.20
2019-06-08T03:52:15.013Z,14.10
2019-06-08T03:56:15.922Z,14.60
2019-06-08T04:00:17.420Z,14.10
2019-06-08T04:04:18.314Z,14.20
2019-06-08T04:08:19.373Z,13.40
2019-06-08T04:12:20.259Z,13.40
2019-06-08T04:16:21.753Z,13.40
2019-06-08T04:20:22.737Z,13.30
2019-06-08T04:24:23.649Z,13.80
2019-06-08T04:28:24.636Z,14.30
2019-06-08T04:32:25.530Z,13.50
2019-06-08T04:36:26.437Z,13.70
2019-06-08T04:40:27.330Z,13.90
2019-06-08T04:44:28.218Z,14.20
2019-06-08T04:48:29.118Z,14.00
2019-06-08T04:52:30.002Z,14.00
2019-06-08T04:56:30.981Z,13.90
2019-06-08T05:00:32.483Z,13.80
2019-06-08T05:04:33.525Z,14.50
2019-06-08T05:08:34.408Z,14.80
2019-06-08T05:12:35.511Z,14.20
2019-06-08T05:16:36.629Z,14.90
2019-06-08T05:20:39.187Z,14.40
2019-06-08T05:24:41.359Z,13.90
2019-06-08T05:28:43.183Z,14.80
2019-06-08T05:32:45.527Z,14.30
2019-06-08T05:36:47.557Z,15.30
2019-06-08T05:40:49.760Z,15.00
2019-06-08T05:44:51.417Z,15.10
2019-06-08T05:48:53.029Z,16.70
2019-06-08T05:52:53.969Z,18.90
2019-06-08T05:56:54.862Z,17.90
2019-06-08T06:00:55.727Z,16.20
2019-06-08T06:04:56.749Z,16.70
2019-06-08T06:08:57.696Z,16.50
2019-06-08T06:12:58.581Z,15.80
2019-06-08T06:16:59.450Z,16.50
2019-06-08T06:21:10.243Z,15.50
2019-06-08T06:25:05.161Z,15.50
2019-06-08T06:29:06.151Z,16.30
2019-06-08T06:33:07.131Z,15.60
2019-06-08T06:37:08.100Z,15.30
2019-06-08T06:41:09.281Z,16.00
2019-06-08T06:45:10.774Z,15.60
2019-06-08T06:49:11.671Z,15.60
2019-06-08T06:53:12.540Z,15.70
2019-06-08T06:57:13.520Z,16.20
2019-06-08T07:01:14.497Z,15.60
2019-06-08T07:05:15.577Z,16.00
2019-06-08T07:09:16.544Z,16.40
2019-06-08T07:13:17.506Z,16.90
2019-06-08T07:17:18.380Z,16.40
2019-06-08T07:21:19.283Z,16.20
2019-06-08T07:25:20.175Z,16.20
2019-06-08T07:29:21.142Z,16.90
2019-06-08T07:33:22.119Z,16.50
2019-06-08T07:37:23.139Z,16.80
2019-06-08T07:41:24.104Z,17.90
2019-06-08T07:45:25.150Z,17.90
2019-06-08T07:49:26.045Z,17.10
2019-06-08T07:53:27.008Z,17.40
2019-06-08T07:57:27.916Z,17.30
2019-06-08T08:01:36.259Z,16.80
2019-06-08T08:05:31.692Z,16.40
2019-06-08T08:09:32.724Z,17.40
2019-06-08T08:13:33.837Z,16.90
2019-06-08T08:17:34.844Z,16.90
2019-06-08T08:21:38.028Z,16.50
2019-06-08T08:25:38.746Z,17.00
2019-06-08T08:29:39.614Z,16.50
2019-06-08T08:33:40.499Z,17.10
2019-06-08T08:37:41.516Z,16.90
2019-06-08T08:41:42.971Z,16.40
2019-06-08T08:45:44.083Z,17.60
2019-06-08T08:49:45.006Z,17.90
2019-06-08T08:53:48.585Z,18.20
2019-06-08T08:57:48.749Z,17.90
2019-06-08T09:01:51.294Z,18.40
2019-06-08T09:05:53.891Z,18.60
2019-06-08T09:09:59.425Z,19.00
2019-06-08T09:14:06.069Z,19.20
2019-06-08T09:18:03.677Z,18.30
2019-06-08T09:22:05.110Z,18.80
2019-06-08T09:26:11.892Z,19.10
2019-06-08T09:30:09.360Z,17.80
2019-06-08T09:34:15.030Z,17.00
2019-06-08T09:38:13.247Z,17.50
2019-06-08T09:42:14.435Z,17.40
2019-06-08T09:46:17.731Z,17.20
2019-06-08T09:50:18.700Z,17.30
2019-06-08T09:54:19.960Z,17.60
2019-06-08T09:58:21.001Z,19.10
2019-06-08T10:02:22.369Z,18.00
2019-06-08T10:06:23.414Z,18.50
2019-06-08T10:10:24.415Z,18.00
2019-06-08T10:14:28.071Z,18.00
2019-06-08T10:18:28.619Z,17.90
2019-06-08T10:22:29.629Z,17.80
2019-06-08T10:26:30.753Z,18.20
2019-06-08T10:30:31.726Z,18.00
2019-06-08T10:34:32.634Z,18.00
2019-06-08T10:38:33.512Z,18.30
2019-06-08T10:42:34.503Z,18.00
2019-06-08T10:46:40.284Z,18.60
2019-06-08T10:50:38.295Z,17.20
2019-06-08T10:54:39.282Z,18.40
2019-06-08T10:58:40.309Z,19.10
2019-06-08T11:02:41.214Z,19.50
2019-06-08T11:06:42.197Z,19.40
2019-06-08T11:10:43.379Z,20.40
2019-06-08T11:14:44.293Z,18.80
2019-06-08T11:18:45.268Z,19.70
2019-06-08T11:22:49.848Z,19.30
2019-06-08T11:26:48.993Z,19.20
2019-06-08T11:30:50.683Z,20.00
2019-06-08T11:34:51.601Z,20.60
2019-06-08T11:38:52.562Z,20.30
2019-06-08T11:42:53.540Z,20.70
2019-06-08T11:46:54.469Z,20.30
2019-06-08T11:50:55.542Z,20.70
2019-06-08T11:54:57.347Z,22.00
2019-06-08T11:59:01.080Z,21.40
2019-06-08T12:03:02.320Z,20.80
2019-06-08T12:07:04.541Z,21.30
2019-06-08T12:11:09.739Z,20.70
2019-06-08T12:15:11.549Z,21.50
2019-06-08T12:19:15.037Z,21.20
2019-06-08T12:23:14.440Z,20.40
2019-06-08T12:27:29.178Z,22.10
2019-06-08T12:31:22.299Z,22.30
2019-06-08T12:35:21.041Z,22.90
2019-06-08T12:39:22.014Z,23.70
2019-06-08T12:43:22.893Z,22.30
2019-06-08T12:47:26.900Z,23.00
2019-06-08T12:51:28.107Z,23.70
2019-06-08T12:55:29.473Z,23.50
2019-06-08T12:59:30.427Z,23.10
2019-06-08T13:03:31.441Z,23.80
2019-06-08T13:07:32.552Z,23.50
2019-06-08T13:11:33.593Z,23.90
2019-06-08T13:15:34.687Z,24.80
2019-06-08T13:19:35.579Z,26.90
2019-06-08T13:23:38.328Z,26.30
2019-06-08T13:27:39.341Z,27.20
2019-06-08T13:31:40.778Z,25.00
2019-06-08T13:35:41.707Z,26.10
2019-06-08T13:39:42.568Z,25.20
2019-06-08T13:43:43.763Z,24.10
2019-06-08T13:47:44.693Z,23.00
2019-06-08T13:51:47.954Z,23.40
2019-06-08T13:55:56.156Z,23.20
2019-06-08T13:59:51.845Z,23.10
2019-06-08T14:03:52.846Z,22.30
2019-06-08T14:07:53.798Z,21.90
2019-06-08T14:11:54.768Z,23.30
2019-06-08T14:15:55.833Z,22.90
2019-06-08T14:19:59.312Z,22.70
2019-06-08T14:23:59.611Z,23.30
2019-06-08T14:28:00.589Z,22.40
2019-06-08T14:32:01.693Z,22.20
2019-06-08T14:36:02.766Z,22.00
2019-06-08T14:40:08.091Z,22.00
2019-06-08T14:44:08.773Z,23.10
2019-06-08T14:48:09.638Z,23.40
2019-06-08T14:52:10.835Z,24.00
2019-06-08T14:56:12.223Z,24.70
2019-06-08T15:00:20.445Z,25.20
2019-06-08T15:04:23.771Z,22.70
2019-06-08T15:08:23.614Z,22.50
2019-06-08T15:12:25.522Z,22.60
2019-06-08T15:16:28.240Z,23.20
2019-06-08T15:20:30.366Z,22.80
2019-06-08T15:24:32.696Z,21.90
2019-06-08T15:28:36.266Z,22.80
2019-06-08T15:32:38.711Z,22.70
2019-06-08T15:36:40.076Z,22.30
2019-06-08T15:40:40.950Z,23.80
2019-06-08T15:44:41.907Z,23.90
2019-06-08T15:48:43.021Z,23.20
2019-06-08T15:52:43.937Z,23.00
2019-06-08T15:56:49.417Z,21.90
2019-06-08T16:00:47.737Z,21.80
2019-06-08T16:04:48.757Z,21.40
2019-06-08T16:08:49.668Z,22.10
2019-06-08T16:12:50.576Z,22.20
2019-06-08T16:16:51.562Z,22.60
2019-06-08T16:20:52.417Z,23.40
2019-06-08T16:24:53.322Z,23.70
2019-06-08T16:28:54.312Z,23.90
2019-06-08T16:32:55.210Z,24.00
2019-06-08T16:36:56.105Z,23.40
2019-06-08T16:40:57.065Z,24.30
2019-06-08T16:44:57.949Z,23.20
2019-06-08T16:48:58.872Z,23.50
2019-06-08T16:52:59.920Z,23.70
2019-06-08T16:57:10.119Z,22.80
2019-06-08T17:01:04.507Z,22.20
2019-06-08T17:05:05.617Z,21.30
2019-06-08T17:09:07.418Z,21.50
2019-06-08T17:13:11.187Z,23.40
2019-06-08T17:17:11.413Z,23.00
2019-06-08T17:21:12.309Z,22.40
2019-06-08T17:25:13.415Z,22.50
2019-06-08T17:29:14.272Z,22.40
2019-06-08T17:33:15.262Z,21.30
2019-06-08T17:37:16.256Z,20.70
2019-06-08T17:41:17.160Z,21.10
2019-06-08T17:45:18.303Z,20.40
2019-06-08T17:49:19.863Z,20.50
2019-06-08T17:53:20.746Z,21.40
2019-06-08T17:57:21.641Z,21.80
2019-06-08T18:01:22.527Z,21.80
2019-06-08T18:05:23.685Z,20.80
2019-06-08T18:09:24.694Z,21.20
2019-06-08T18:13:27.258Z,21.30
2019-06-08T18:17:28.534Z,21.50
2019-06-08T18:21:29.466Z,21.10
2019-06-08T18:25:30.541Z,21.40
2019-06-08T18:29:31.534Z,22.00
2019-06-08T18:33:32.431Z,21.90
2019-06-08T18:37:33.456Z,22.10
2019-06-08T18:41:35.012Z,22.50
2019-06-08T18:45:39.055Z,21.70
2019-06-08T18:49:41.646Z,21.60
2019-06-08T18:54:01.810Z,21.90
2019-06-08T18:57:45.766Z,21.10
2019-06-08T19:01:49.469Z,20.80
2019-06-08T19:05:52.082Z,20.90
2019-06-08T19:09:54.294Z,20.80
2019-06-08T19:13:57.899Z,20.60
2019-06-08T19:17:58.069Z,20.80
2019-06-08T19:21:59.072Z,21.20
2019-06-08T19:26:00.493Z,21.10
2019-06-08T19:30:01.878Z,20.90
2019-06-08T19:34:03.158Z,20.40
2019-06-08T19:38:04.034Z,20.30
2019-06-08T19:42:05.435Z,20.20
2019-06-08T19:46:07.206Z,19.90
2019-06-08T19:50:08.583Z,20.00
2019-06-08T19:54:09.749Z,19.80
2019-06-08T19:58:10.628Z,19.70
2019-06-08T20:02:11.523Z,19.90
2019-06-08T20:06:14.317Z,19.90
2019-06-08T20:10:17.637Z,19.90
2019-06-08T20:14:18.310Z,19.30
2019-06-08T20:18:19.343Z,19.20
2019-06-08T20:22:20.293Z,19.50
2019-06-08T20:26:21.205Z,19.60
2019-06-08T20:30:22.204Z,19.30
2019-06-08T20:34:23.208Z,18.90
2019-06-08T20:38:35.195Z,18.70
2019-06-08T20:42:28.855Z,18.50
2019-06-08T20:46:29.715Z,18.70
2019-06-08T20:50:30.691Z,18.80
2019-06-08T20:54:31.544Z,19.10
2019-06-08T20:58:32.475Z,18.60
2019-06-08T21:02:33.465Z,18.50
2019-06-08T21:06:34.333Z,18.30
2019-06-08T21:10:37.611Z,18.30
2019-06-08T21:14:38.232Z,18.00
2019-06-08T21:18:39.085Z,18.00
2019-06-08T21:22:39.974Z,17.90
2019-06-08T21:26:40.874Z,18.00
2019-06-08T21:30:41.763Z,17.90
2019-06-08T21:34:42.650Z,17.30
2019-06-08T21:38:43.609Z,14.40
2019-06-08T21:42:44.547Z,15.40
2019-06-08T21:46:48.708Z,16.60
2019-06-08T21:50:53.346Z,17.00
2019-06-08T21:54:54.346Z,17.20
2019-06-08T21:58:58.986Z,17.70
2019-06-08T22:03:00.150Z,17.60
2019-06-08T22:07:03.208Z,17.40
2019-06-08T22:11:04.549Z,17.50
2019-06-08T22:15:07.501Z,16.90
2019-06-08T22:19:08.843Z,16.40
2019-06-08T22:23:09.677Z,16.10
2019-06-08T22:27:10.699Z,15.60
2019-06-08T22:31:11.576Z,16.00
2019-06-08T22:35:12.561Z,16.10
2019-06-08T22:39:13.456Z,16.60
2019-06-08T22:43:16.124Z,16.80
2019-06-08T22:47:18.564Z,16.80
2019-06-08T22:51:19.596Z,16.50
2019-06-08T22:55:20.490Z,16.40
2019-06-08T22:59:21.481Z,15.90
2019-06-08T23:03:22.329Z,16.40
2019-06-08T23:07:28.628Z,16.50
2019-06-08T23:11:28.301Z,16.60
2019-06-08T23:15:28.826Z,16.50
2019-06-08T23:19:29.726Z,16.60
2019-06-08T23:23:30.676Z,16.30
2019-06-08T23:27:31.563Z,16.30
2019-06-08T23:31:32.437Z,16.20
2019-06-08T23:35:56.775Z,15.80
2019-06-08T23:39:37.497Z,16.20
2019-06-08T23:43:38.534Z,16.30
2019-06-08T23:47:39.447Z,14.80
2019-06-08T23:51:40.301Z,15.10
2019-06-08T23:55:41.186Z,15.90
2019-06-08T23:59:42.048Z,15.30
